createdAt,value
2016-12-24T00:00:00.329Z,15.28
2016-12-24T00:01:10.894Z,15.19
2016-12-24T00:02:21.119Z,15.17
2016-12-24T00:03:31.700Z,15.23
2016-12-24T00:04:42.657Z,15.16
2016-12-24T00:05:56.258Z,15.17
2016-12-24T00:07:06.815Z,15.16
2016-12-24T00:08:17.380Z,15.23
2016-12-24T00:09:28.282Z,15.21
2016-12-24T00:10:38.891Z,15.17
2016-12-24T00:11:49.804Z,15.2
2016-12-24T00:13:00.710Z,15.16
2016-12-24T00:14:11.279Z,15.16
2016-12-24T00:15:21.835Z,15.21
2016-12-24T00:16:32.889Z,15.2
2016-12-24T00:17:43.799Z,15.19
2016-12-24T00:18:54.711Z,15.16
2016-12-24T00:20:05.625Z,15.16
2016-12-24T00:21:16.190Z,15.19
2016-12-24T00:22:26.795Z,15.19
2016-12-24T00:23:37.364Z,15.23
2016-12-24T00:24:47.929Z,15.19
2016-12-24T00:25:58.838Z,15.2
2016-12-24T00:27:09.404Z,15.23
2016-12-24T00:28:20.029Z,15.2
2016-12-24T00:29:30.943Z,15.21
2016-12-24T00:30:41.523Z,15.27
2016-12-24T00:31:52.085Z,15.16
2016-12-24T00:33:02.986Z,15.23
2016-12-24T00:34:13.259Z,15.1
2016-12-24T00:35:24.168Z,15.21
2016-12-24T00:36:34.749Z,15.14
2016-12-24T00:37:45.310Z,15.13
2016-12-24T00:38:55.519Z,15.13
2016-12-24T00:40:06.477Z,15.21
2016-12-24T00:41:17.042Z,15.16
2016-12-24T00:42:27.947Z,15.16
2016-12-24T00:43:38.849Z,15.21
2016-12-24T00:44:49.765Z,15.03
2016-12-24T00:46:00.379Z,15.17
2016-12-24T00:47:10.596Z,15.13
2016-12-24T00:48:21.513Z,15.19
2016-12-24T00:49:32.426Z,15.16
2016-12-24T00:50:43.336Z,15.1
2016-12-24T00:51:53.941Z,15.1
2016-12-24T00:53:04.510Z,15.16
2016-12-24T00:54:15.423Z,15.13
2016-12-24T00:55:25.988Z,15.03
2016-12-24T00:56:36.558Z,15.07
2016-12-24T00:57:47.175Z,15.2
2016-12-24T00:58:57.412Z,15.13
2016-12-24T01:00:08.317Z,15.11
2016-12-24T01:01:18.538Z,15.13
2016-12-24T01:02:29.439Z,15.11
2016-12-24T01:03:40.421Z,15.09
2016-12-24T01:04:50.990Z,15.06
2016-12-24T01:06:01.895Z,15.07
2016-12-24T01:07:12.812Z,15.11
2016-12-24T01:08:23.717Z,15.03
2016-12-24T01:09:34.322Z,15.09
2016-12-24T01:10:45.227Z,15.09
2016-12-24T01:11:56.153Z,15.13
2016-12-24T01:13:06.378Z,15.14
2016-12-24T01:14:17.291Z,15.03
2016-12-24T01:15:28.248Z,15.09
2016-12-24T01:16:38.821Z,15.14
2016-12-24T01:17:49.394Z,15.1
2016-12-24T01:18:59.996Z,15.07
2016-12-24T01:20:10.897Z,15.07
2016-12-24T01:21:21.510Z,15.13
2016-12-24T01:22:32.067Z,15.11
2016-12-24T01:23:42.976Z,15.13
2016-12-24T01:24:53.886Z,15.19
2016-12-24T01:26:04.791Z,15.16
2016-12-24T01:27:15.772Z,15.09
2016-12-24T01:28:25.990Z,15.14
2016-12-24T01:29:36.902Z,15.09
2016-12-24T01:30:47.463Z,15.17
2016-12-24T01:31:58.376Z,15.16
2016-12-24T01:33:09.334Z,15.11
2016-12-24T01:34:20.239Z,15.14
2016-12-24T01:35:31.156Z,15.1
2016-12-24T01:36:42.089Z,15.17
2016-12-24T01:37:53.002Z,15.19
2016-12-24T01:39:03.960Z,15.14
2016-12-24T01:40:14.530Z,15.14
2016-12-24T01:41:25.444Z,15.16
2016-12-24T01:42:36.383Z,15.1
2016-12-24T01:43:47.304Z,15.14
2016-12-24T01:44:57.921Z,15.2
2016-12-24T01:46:08.835Z,15.25
2016-12-24T01:47:19.396Z,15.1
2016-12-24T01:48:29.969Z,15.07
2016-12-24T01:49:40.870Z,15.16
2016-12-24T01:50:51.484Z,15.07
2016-12-24T01:52:02.077Z,15.09
2016-12-24T01:53:12.634Z,15.07
2016-12-24T01:54:23.231Z,15.09
2016-12-24T01:55:33.788Z,15.07
2016-12-24T01:56:44.405Z,15.1
2016-12-24T01:57:54.974Z,15.07
2016-12-24T01:59:05.539Z,15.09
2016-12-24T02:00:16.112Z,15.09
2016-12-24T02:01:26.681Z,15.02
2016-12-24T02:02:37.294Z,15.11
2016-12-24T02:03:48.199Z,15.1
2016-12-24T02:04:58.764Z,15.01
2016-12-24T02:06:09.665Z,15.03
2016-12-24T02:07:20.222Z,15.1
2016-12-24T02:08:31.175Z,15.09
2016-12-24T02:09:41.748Z,15.19
2016-12-24T02:10:52.317Z,15.09
2016-12-24T02:12:03.218Z,15.07
2016-12-24T02:13:13.784Z,15.03
2016-12-24T02:14:24.749Z,15.07
2016-12-24T02:15:35.666Z,15.1
2016-12-24T02:16:46.575Z,15.07
2016-12-24T02:17:57.484Z,15.17
2016-12-24T02:19:08.393Z,15.03
2016-12-24T02:20:19.359Z,15.1
2016-12-24T02:21:29.923Z,15.1
2016-12-24T02:22:40.821Z,15.09
2016-12-24T02:23:51.390Z,15.02
2016-12-24T02:25:02.300Z,14.99
2016-12-24T02:26:13.256Z,14.98
2016-12-24T02:27:24.169Z,15.02
2016-12-24T02:28:34.770Z,15.09
2016-12-24T02:29:45.674Z,15.01
2016-12-24T02:30:56.580Z,14.99
2016-12-24T02:32:07.193Z,14.98
2016-12-24T02:33:18.115Z,14.98
2016-12-24T02:34:28.728Z,14.96
2016-12-24T02:35:39.301Z,14.94
2016-12-24T02:36:50.210Z,14.99
2016-12-24T02:38:00.828Z,15.07
2016-12-24T02:39:11.756Z,14.99
2016-12-24T02:40:22.322Z,14.94
2016-12-24T02:41:32.895Z,15.03
2016-12-24T02:42:43.468Z,14.96
2016-12-24T02:43:54.089Z,14.96
2016-12-24T02:45:04.658Z,14.94
2016-12-24T02:46:15.568Z,14.96
2016-12-24T02:47:26.128Z,14.96
2016-12-24T02:48:37.033Z,15.02
2016-12-24T02:49:47.664Z,14.94
2016-12-24T02:50:58.232Z,14.91
2016-12-24T02:52:09.145Z,15.06
2016-12-24T02:53:20.042Z,14.94
2016-12-24T02:54:30.616Z,15.02
2016-12-24T02:55:41.581Z,15.02
2016-12-24T02:56:52.490Z,14.94
2016-12-24T02:58:03.055Z,14.94
2016-12-24T02:59:13.620Z,14.94
2016-12-24T03:00:24.186Z,14.95
2016-12-24T03:01:35.175Z,15.01
2016-12-24T03:02:45.732Z,14.95
2016-12-24T03:03:56.633Z,14.98
2016-12-24T03:05:07.563Z,14.96
2016-12-24T03:06:18.120Z,14.96
2016-12-24T03:07:29.081Z,14.91
2016-12-24T03:08:39.999Z,14.95
2016-12-24T03:09:50.899Z,14.96
2016-12-24T03:11:01.473Z,14.94
2016-12-24T03:12:12.386Z,14.94
2016-12-24T03:13:23.339Z,14.96
2016-12-24T03:14:33.900Z,14.96
2016-12-24T03:15:44.813Z,14.94
2016-12-24T03:16:55.378Z,14.95
2016-12-24T03:18:05.931Z,14.98
2016-12-24T03:19:16.549Z,14.95
2016-12-24T03:20:27.118Z,14.99
2016-12-24T03:21:37.687Z,14.89
2016-12-24T03:22:48.596Z,14.88
2016-12-24T03:23:59.161Z,14.84
2016-12-24T03:25:10.174Z,14.94
2016-12-24T03:26:21.108Z,14.92
2016-12-24T03:27:31.673Z,14.88
2016-12-24T03:28:42.271Z,14.91
2016-12-24T03:29:53.171Z,14.81
2016-12-24T03:31:03.885Z,14.88
2016-12-24T03:32:14.454Z,14.89
2016-12-24T03:33:25.351Z,14.86
2016-12-24T03:34:36.268Z,14.81
2016-12-24T03:35:47.170Z,14.92
2016-12-24T03:36:58.131Z,14.91
2016-12-24T03:38:09.048Z,14.89
2016-12-24T03:39:19.985Z,14.86
2016-12-24T03:40:30.894Z,14.86
2016-12-24T03:41:41.811Z,14.86
2016-12-24T03:42:52.789Z,14.83
2016-12-24T03:44:03.693Z,14.81
2016-12-24T03:45:14.591Z,14.91
2016-12-24T03:46:25.156Z,14.94
2016-12-24T03:47:36.078Z,14.77
2016-12-24T03:48:47.039Z,14.94
2016-12-24T03:49:57.935Z,14.86
2016-12-24T03:51:08.838Z,14.84
2016-12-24T03:52:19.410Z,14.91
2016-12-24T03:53:29.973Z,14.89
2016-12-24T03:54:40.937Z,14.84
2016-12-24T03:55:51.842Z,14.88
2016-12-24T03:57:02.755Z,14.77
2016-12-24T03:58:13.660Z,14.77
2016-12-24T03:59:24.561Z,14.72
2016-12-24T04:00:35.530Z,14.78
2016-12-24T04:01:46.092Z,14.8
2016-12-24T04:02:56.657Z,14.84
2016-12-24T04:04:07.250Z,14.77
2016-12-24T04:05:18.163Z,14.86
2016-12-24T04:06:29.136Z,14.89
2016-12-24T04:07:40.042Z,14.72
2016-12-24T04:08:50.951Z,14.75
2016-12-24T04:10:01.852Z,14.86
2016-12-24T04:11:12.765Z,14.78
2016-12-24T04:12:23.611Z,14.81
2016-12-24T04:13:34.524Z,14.92
2016-12-24T04:14:45.081Z,14.86
2016-12-24T04:15:55.650Z,14.75
2016-12-24T04:17:06.560Z,14.83
2016-12-24T04:18:17.513Z,14.94
2016-12-24T04:19:28.090Z,14.8
2016-12-24T04:20:39.007Z,14.77
2016-12-24T04:21:49.912Z,14.75
2016-12-24T04:23:00.505Z,14.89
2016-12-24T04:24:11.127Z,14.89
2016-12-24T04:25:21.688Z,14.84
2016-12-24T04:26:32.257Z,14.73
2016-12-24T04:27:43.170Z,14.8
2016-12-24T04:28:54.075Z,14.83
2016-12-24T04:30:05.041Z,14.77
2016-12-24T04:31:15.942Z,14.84
2016-12-24T04:32:26.855Z,14.81
2016-12-24T04:33:37.756Z,14.75
2016-12-24T04:34:48.318Z,14.8
2016-12-24T04:35:58.991Z,14.8
2016-12-24T04:37:09.900Z,14.75
2016-12-24T04:38:20.811Z,14.83
2016-12-24T04:39:31.726Z,14.78
2016-12-24T04:40:42.639Z,14.75
2016-12-24T04:41:53.257Z,14.8
2016-12-24T04:43:06.494Z,14.8
2016-12-24T04:44:17.391Z,14.8
2016-12-24T04:45:27.952Z,14.72
2016-12-24T04:46:38.861Z,14.75
2016-12-24T04:47:49.923Z,14.77
2016-12-24T04:49:00.484Z,14.8
2016-12-24T04:50:11.398Z,14.81
2016-12-24T04:51:22.311Z,14.78
2016-12-24T04:52:33.208Z,14.81
2016-12-24T04:53:43.824Z,14.88
2016-12-24T04:54:54.722Z,14.92
2016-12-24T04:56:05.291Z,14.8
2016-12-24T04:57:16.225Z,14.75
2016-12-24T04:58:26.790Z,14.86
2016-12-24T04:59:37.407Z,14.83
2016-12-24T05:00:48.312Z,14.81
2016-12-24T05:01:59.221Z,14.73
2016-12-24T05:03:09.787Z,14.83
2016-12-24T05:04:20.352Z,14.7
2016-12-24T05:05:30.961Z,14.89
2016-12-24T05:06:41.879Z,14.68
2016-12-24T05:07:52.779Z,14.78
2016-12-24T05:09:03.340Z,14.78
2016-12-24T05:10:14.250Z,14.73
2016-12-24T05:11:24.531Z,14.78
2016-12-24T05:12:35.092Z,14.83
2016-12-24T05:13:46.029Z,14.73
2016-12-24T05:14:56.582Z,14.73
2016-12-24T05:16:07.496Z,14.8
2016-12-24T05:17:18.445Z,14.8
2016-12-24T05:18:29.006Z,14.75
2016-12-24T05:19:39.916Z,14.81
2016-12-24T05:20:50.477Z,14.91
2016-12-24T05:22:01.372Z,14.91
2016-12-24T05:23:11.987Z,14.8
2016-12-24T05:24:22.548Z,14.72
2016-12-24T05:25:33.121Z,14.8
2016-12-24T05:26:44.039Z,14.78
2016-12-24T05:27:54.940Z,14.73
2016-12-24T05:29:05.545Z,14.83
2016-12-24T05:30:16.098Z,14.83
2016-12-24T05:31:27.004Z,14.89
2016-12-24T05:32:37.913Z,14.78
2016-12-24T05:33:48.826Z,14.72
2016-12-24T05:34:59.095Z,14.84
2016-12-24T05:36:09.673Z,14.92
2016-12-24T05:37:20.585Z,14.81
2016-12-24T05:38:31.503Z,14.77
2016-12-24T05:39:42.432Z,14.86
2016-12-24T05:40:53.385Z,14.94
2016-12-24T05:42:04.294Z,14.77
2016-12-24T05:43:14.852Z,14.75
2016-12-24T05:44:25.069Z,14.84
2016-12-24T05:45:35.287Z,14.83
2016-12-24T05:46:46.259Z,14.84
2016-12-24T05:47:57.172Z,14.68
2016-12-24T05:49:08.078Z,14.77
2016-12-24T05:50:18.659Z,14.86
2016-12-24T05:51:29.224Z,14.7
2016-12-24T05:52:40.181Z,14.83
2016-12-24T05:53:50.746Z,14.77
2016-12-24T05:55:01.332Z,14.83
2016-12-24T05:56:12.243Z,14.78
2016-12-24T05:57:22.798Z,14.95
2016-12-24T05:58:33.439Z,14.8
2016-12-24T05:59:44.028Z,14.8
2016-12-24T06:00:54.578Z,14.84
2016-12-24T06:02:04.819Z,14.95
2016-12-24T06:03:15.732Z,14.84
2016-12-24T06:04:26.345Z,14.89
2016-12-24T06:05:37.246Z,14.84
2016-12-24T06:06:48.168Z,14.94
2016-12-24T06:07:59.108Z,14.83
2016-12-24T06:09:09.666Z,14.72
2016-12-24T06:10:20.271Z,14.91
2016-12-24T06:11:30.836Z,14.94
2016-12-24T06:12:41.409Z,14.78
2016-12-24T06:13:51.964Z,14.78
2016-12-24T06:15:02.880Z,14.8
2016-12-24T06:16:13.833Z,14.84
2016-12-24T06:17:24.402Z,14.84
2016-12-24T06:18:35.303Z,14.83
2016-12-24T06:19:45.521Z,14.81
2016-12-24T06:20:56.082Z,14.73
2016-12-24T06:22:06.695Z,14.84
2016-12-24T06:23:17.264Z,14.77
2016-12-24T06:24:27.481Z,14.7
2016-12-24T06:25:38.398Z,14.88
2016-12-24T06:26:49.304Z,14.8
2016-12-24T06:28:00.013Z,14.77
2016-12-24T06:29:10.934Z,14.72
2016-12-24T06:30:21.499Z,14.91
2016-12-24T06:31:32.404Z,14.83
2016-12-24T06:32:43.306Z,14.84
2016-12-24T06:33:53.927Z,14.83
2016-12-24T06:35:04.840Z,14.83
2016-12-24T06:36:15.745Z,14.78
2016-12-24T06:37:26.659Z,14.86
2016-12-24T06:38:37.216Z,14.78
2016-12-24T06:39:48.173Z,14.86
2016-12-24T06:40:58.390Z,14.83
2016-12-24T06:42:08.951Z,14.88
2016-12-24T06:43:19.168Z,14.84
2016-12-24T06:44:30.081Z,14.8
2016-12-24T06:45:41.039Z,14.88
2016-12-24T06:46:51.600Z,14.92
2016-12-24T06:48:02.513Z,14.92
2016-12-24T06:49:13.422Z,14.83
2016-12-24T06:50:24.336Z,14.81
2016-12-24T06:51:34.948Z,14.95
2016-12-24T06:52:45.858Z,14.95
2016-12-24T06:53:56.767Z,14.8
2016-12-24T06:55:07.680Z,14.89
2016-12-24T06:56:18.581Z,14.92
2016-12-24T06:57:29.563Z,14.86
2016-12-24T06:58:40.472Z,14.91
2016-12-24T06:59:51.041Z,14.91
2016-12-24T07:01:01.990Z,14.84
2016-12-24T07:02:12.923Z,14.89
2016-12-24T07:03:23.620Z,14.89
2016-12-24T07:04:33.894Z,14.95
2016-12-24T07:05:44.243Z,14.92
2016-12-24T07:06:55.151Z,14.91
2016-12-24T07:08:05.381Z,14.95
2016-12-24T07:09:16.350Z,14.91
2016-12-24T07:10:27.275Z,14.91
2016-12-24T07:11:39.825Z,14.88
2016-12-24T07:12:52.470Z,14.92
2016-12-24T07:14:04.339Z,14.94
2016-12-24T07:15:14.608Z,14.96
2016-12-24T07:16:24.841Z,14.95
2016-12-24T07:17:34.731Z,14.91
2016-12-24T07:18:45.304Z,14.91
2016-12-24T07:19:56.217Z,14.98
2016-12-24T07:21:07.178Z,14.88
2016-12-24T07:22:18.083Z,14.83
2016-12-24T07:23:28.986Z,14.95
2016-12-24T07:24:39.549Z,14.84
2016-12-24T07:25:50.451Z,14.92
2016-12-24T07:27:01.072Z,14.95
2016-12-24T07:28:11.973Z,14.95
2016-12-24T07:29:22.530Z,14.95
2016-12-24T07:30:33.127Z,14.94
2016-12-24T07:31:44.036Z,14.89
2016-12-24T07:32:54.645Z,14.95
2016-12-24T07:34:05.550Z,14.92
2016-12-24T07:35:16.536Z,14.94
2016-12-24T07:36:27.097Z,14.89
2016-12-24T07:37:37.666Z,14.94
2016-12-24T07:38:48.615Z,14.92
2016-12-24T07:39:59.177Z,14.96
2016-12-24T07:41:09.770Z,14.94
2016-12-24T07:42:20.671Z,14.92
2016-12-24T07:43:31.236Z,14.96
2016-12-24T07:44:41.845Z,14.95
2016-12-24T07:45:52.417Z,14.96
2016-12-24T07:47:03.324Z,14.96
2016-12-24T07:48:13.893Z,14.91
2016-12-24T07:49:24.811Z,14.95
2016-12-24T07:50:35.779Z,14.96
2016-12-24T07:51:46.680Z,14.92
2016-12-24T07:52:57.581Z,14.96
2016-12-24T07:54:08.139Z,14.91
2016-12-24T07:55:19.076Z,14.99
2016-12-24T07:56:30.133Z,14.94
2016-12-24T07:57:41.050Z,14.98
2016-12-24T07:58:51.615Z,14.96
2016-12-24T08:00:02.520Z,14.98
2016-12-24T08:01:13.434Z,14.91
2016-12-24T08:02:24.387Z,14.92
2016-12-24T08:03:35.332Z,14.96
2016-12-24T08:04:45.897Z,15.01
2016-12-24T08:05:56.802Z,14.99
2016-12-24T08:07:07.719Z,15.01
2016-12-24T08:08:18.333Z,14.96
2016-12-24T08:09:29.250Z,14.99
2016-12-24T08:10:40.167Z,15.06
2016-12-24T08:11:51.088Z,14.98
2016-12-24T08:13:01.997Z,14.96
2016-12-24T08:14:13.054Z,14.94
2016-12-24T08:15:23.615Z,14.94
2016-12-24T08:16:34.527Z,15.02
2016-12-24T08:17:45.442Z,15.11
2016-12-24T08:18:56.347Z,15.03
2016-12-24T08:20:07.312Z,15.07
2016-12-24T08:21:18.218Z,14.99
2016-12-24T08:22:28.783Z,14.95
2016-12-24T08:23:39.692Z,15.03
2016-12-24T08:24:50.605Z,15.02
2016-12-24T08:26:01.214Z,15.01
2016-12-24T08:27:12.119Z,15.07
2016-12-24T08:28:22.684Z,15.02
2016-12-24T08:29:33.593Z,15.07
2016-12-24T08:30:44.498Z,15.14
2016-12-24T08:31:55.448Z,15.07
2016-12-24T08:33:06.021Z,15.16
2016-12-24T08:34:16.934Z,15.13
2016-12-24T08:35:27.496Z,15.16
2016-12-24T08:36:38.064Z,15.17
2016-12-24T08:37:48.679Z,15.23
2016-12-24T08:38:59.583Z,15.16
2016-12-24T08:40:10.156Z,15.2
2016-12-24T08:41:20.717Z,15.23
2016-12-24T08:42:31.623Z,15.07
2016-12-24T08:43:42.580Z,15.27
2016-12-24T08:44:53.157Z,15.14
2016-12-24T08:46:03.722Z,15.25
2016-12-24T08:47:14.287Z,15.23
2016-12-24T08:48:25.204Z,15.16
2016-12-24T08:49:36.153Z,15.25
2016-12-24T08:50:46.719Z,15.14
2016-12-24T08:51:57.628Z,15.27
2016-12-24T08:53:08.537Z,15.31
2016-12-24T08:54:19.458Z,15.16
2016-12-24T08:55:30.111Z,15.17
2016-12-24T08:56:41.025Z,15.2
2016-12-24T08:57:51.949Z,15.21
2016-12-24T08:59:02.855Z,15.11
2016-12-24T09:00:13.772Z,15.16
2016-12-24T09:01:24.725Z,15.11
2016-12-24T09:02:35.290Z,15.1
2016-12-24T09:03:46.203Z,15.32
2016-12-24T09:04:57.104Z,15.19
2016-12-24T09:06:08.018Z,15.28
2016-12-24T09:07:18.975Z,15.23
2016-12-24T09:08:29.880Z,15.25
2016-12-24T09:09:40.449Z,15.25
2016-12-24T09:10:51.022Z,15.17
2016-12-24T09:12:01.935Z,15.21
2016-12-24T09:13:12.893Z,15.29
2016-12-24T09:14:23.798Z,15.32
2016-12-24T09:15:34.367Z,15.32
2016-12-24T09:16:45.264Z,15.29
2016-12-24T09:17:56.178Z,15.32
2016-12-24T09:19:07.146Z,15.27
2016-12-24T09:20:17.736Z,15.35
2016-12-24T09:21:28.649Z,15.28
2016-12-24T09:22:39.598Z,15.32
2016-12-24T09:23:50.163Z,15.43
2016-12-24T09:25:00.777Z,15.41
2016-12-24T09:26:11.690Z,15.38
2016-12-24T09:27:22.595Z,15.27
2016-12-24T09:28:33.504Z,15.01
2016-12-24T09:29:44.057Z,14.88
2016-12-24T09:30:55.015Z,14.83
2016-12-24T09:32:05.920Z,14.94
2016-12-24T09:33:16.681Z,14.96
2016-12-24T09:34:27.246Z,15.02
2016-12-24T09:35:37.867Z,14.96
2016-12-24T09:36:48.812Z,15.01
2016-12-24T09:37:59.722Z,15.09
2016-12-24T09:39:10.335Z,15.1
2016-12-24T09:40:20.808Z,15.19
2016-12-24T09:41:31.713Z,15.23
2016-12-24T09:42:42.326Z,15.19
2016-12-24T09:43:53.240Z,15.31
2016-12-24T09:45:03.471Z,15.27
2016-12-24T09:46:14.378Z,15.29
2016-12-24T09:47:25.283Z,15.31
2016-12-24T09:48:35.892Z,15.38
2016-12-24T09:49:46.461Z,15.31
2016-12-24T09:50:57.019Z,15.34
2016-12-24T09:52:07.248Z,15.32
2016-12-24T09:53:17.805Z,15.34
2016-12-24T09:54:28.762Z,15.41
2016-12-24T09:55:39.327Z,15.43
2016-12-24T09:56:49.928Z,15.43
2016-12-24T09:58:00.838Z,15.47
2016-12-24T09:59:11.743Z,15.47
2016-12-24T10:00:22.700Z,15.41
2016-12-24T10:01:33.257Z,15.39
2016-12-24T10:02:44.158Z,15.41
2016-12-24T10:03:54.727Z,15.35
2016-12-24T10:05:05.629Z,15.47
2016-12-24T10:06:16.591Z,15.47
2016-12-24T10:07:27.491Z,15.39
2016-12-24T10:08:38.060Z,15.38
2016-12-24T10:09:48.970Z,15.41
2016-12-24T10:10:59.547Z,15.44
2016-12-24T10:12:10.168Z,15.39
2016-12-24T10:13:21.073Z,15.51
2016-12-24T10:14:31.978Z,15.5
2016-12-24T10:15:42.883Z,15.5
2016-12-24T10:16:53.794Z,15.54
2016-12-24T10:18:04.745Z,15.49
2016-12-24T10:19:15.651Z,15.6
2016-12-24T10:20:26.569Z,15.59
2016-12-24T10:21:37.493Z,15.56
2016-12-24T10:22:48.411Z,15.56
2016-12-24T10:23:59.395Z,15.5
2016-12-24T10:25:10.305Z,15.59
2016-12-24T10:26:21.210Z,15.5
2016-12-24T10:27:31.807Z,15.43
2016-12-24T10:28:42.709Z,15.46
2016-12-24T10:29:53.669Z,15.39
2016-12-24T10:31:04.230Z,15.46
2016-12-24T10:32:15.132Z,15.49
2016-12-24T10:33:26.065Z,15.49
2016-12-24T10:34:36.974Z,15.51
2016-12-24T10:35:47.923Z,15.49
2016-12-24T10:36:58.484Z,15.53
2016-12-24T10:38:09.393Z,15.51
2016-12-24T10:39:19.962Z,15.43
2016-12-24T10:40:30.556Z,15.51
2016-12-24T10:41:41.509Z,15.64
2016-12-24T10:42:52.423Z,15.57
2016-12-24T10:44:02.979Z,15.57
2016-12-24T10:45:13.892Z,15.57
2016-12-24T10:46:24.813Z,15.57
2016-12-24T10:47:35.130Z,15.59
2016-12-24T10:48:46.036Z,15.57
2016-12-24T10:49:56.949Z,15.64
2016-12-24T10:51:07.854Z,15.54
2016-12-24T10:52:18.411Z,15.64
2016-12-24T10:53:28.684Z,15.69
2016-12-24T10:54:39.246Z,15.59
2016-12-24T10:55:50.151Z,15.68
2016-12-24T10:57:00.712Z,15.67
2016-12-24T10:58:11.625Z,15.64
2016-12-24T10:59:22.230Z,15.65
2016-12-24T11:00:33.135Z,15.65
2016-12-24T11:01:44.045Z,15.67
2016-12-24T11:02:54.962Z,15.64
2016-12-24T11:04:05.864Z,15.59
2016-12-24T11:05:16.476Z,15.67
2016-12-24T11:06:27.385Z,15.67
2016-12-24T11:07:38.290Z,15.64
2016-12-24T11:08:49.191Z,15.62
2016-12-24T11:09:59.761Z,15.67
2016-12-24T11:11:10.742Z,15.62
2016-12-24T11:12:21.651Z,15.69
2016-12-24T11:13:32.564Z,15.69
2016-12-24T11:14:43.422Z,15.75
2016-12-24T11:15:53.634Z,15.76
2016-12-24T11:17:04.243Z,15.83
2016-12-24T11:18:14.813Z,15.82
2016-12-24T11:19:25.390Z,15.93
2016-12-24T11:20:36.699Z,15.83
2016-12-24T11:21:49.448Z,15.96
2016-12-24T11:23:04.814Z,15.96
2016-12-24T11:24:20.867Z,15.94
2016-12-24T11:25:34.676Z,16
2016-12-24T11:26:47.306Z,15.96
2016-12-24T11:28:00.263Z,16.12
2016-12-24T11:29:12.060Z,16.14
2016-12-24T11:30:22.841Z,16.21
2016-12-24T11:31:36.010Z,16.17
2016-12-24T11:32:48.159Z,16.27
2016-12-24T11:34:00.964Z,16.25
2016-12-24T11:35:12.733Z,16.2
2016-12-24T11:36:24.958Z,16.31
2016-12-24T11:37:36.680Z,16.35
2016-12-24T11:38:47.656Z,16.35
2016-12-24T11:39:57.978Z,16.39
2016-12-24T11:41:08.246Z,16.39
2016-12-24T11:42:18.468Z,16.49
2016-12-24T11:43:29.029Z,16.46
2016-12-24T11:44:39.934Z,16.46
2016-12-24T11:45:50.894Z,16.53
2016-12-24T11:47:01.852Z,16.5
2016-12-24T11:48:12.414Z,16.52
2016-12-24T11:49:22.650Z,16.57
2016-12-24T11:50:33.239Z,16.5
2016-12-24T11:51:43.848Z,16.43
2016-12-24T11:52:54.757Z,16.52
2016-12-24T11:54:05.662Z,16.49
2016-12-24T11:55:16.223Z,16.5
2016-12-24T11:56:27.132Z,16.53
2016-12-24T11:57:38.085Z,16.48
2016-12-24T11:58:49.390Z,16.63
2016-12-24T12:00:07.916Z,16.61
2016-12-24T12:01:28.310Z,16.64
2016-12-24T12:02:44.967Z,16.64
2016-12-24T12:04:03.160Z,16.6
2016-12-24T12:05:18.049Z,16.61
2016-12-24T12:06:36.366Z,16.66
2016-12-24T12:07:56.056Z,16.64
2016-12-24T12:09:13.689Z,16.6
2016-12-24T12:10:34.394Z,16.48
2016-12-24T12:11:52.587Z,16.49
2016-12-24T12:13:10.200Z,16.49
2016-12-24T12:14:25.722Z,16.46
2016-12-24T12:15:42.103Z,16.5
2016-12-24T12:16:57.240Z,16.6
2016-12-24T12:18:12.810Z,16.61
2016-12-24T12:19:24.803Z,16.52
2016-12-24T12:20:35.367Z,16.58
2016-12-24T12:21:46.033Z,16.58
2016-12-24T12:22:57.310Z,16.57
2016-12-24T12:24:08.279Z,16.53
2016-12-24T12:25:19.188Z,16.61
2016-12-24T12:26:29.741Z,16.63
2016-12-24T12:27:40.658Z,16.68
2016-12-24T12:28:51.641Z,16.67
2016-12-24T12:30:02.585Z,16.67
2016-12-24T12:31:13.498Z,16.64
2016-12-24T12:32:24.403Z,16.73
2016-12-24T12:33:34.969Z,16.71
2016-12-24T12:34:45.238Z,16.66
2016-12-24T12:35:56.143Z,16.66
2016-12-24T12:37:06.709Z,16.71
2016-12-24T12:38:17.629Z,16.76
2016-12-24T12:39:28.539Z,16.76
2016-12-24T12:40:38.800Z,16.73
2016-12-24T12:41:49.705Z,16.79
2016-12-24T12:43:00.274Z,16.78
2016-12-24T12:44:10.840Z,16.85
2016-12-24T12:45:21.409Z,16.88
2016-12-24T12:46:32.382Z,16.97
2016-12-24T12:47:42.599Z,16.96
2016-12-24T12:48:53.161Z,16.96
2016-12-24T12:50:04.075Z,17.01
2016-12-24T12:51:14.991Z,17.08
2016-12-24T12:52:25.604Z,17.08
2016-12-24T12:53:36.165Z,17.06
2016-12-24T12:54:46.382Z,17.06
2016-12-24T12:55:57.288Z,17.18
2016-12-24T12:57:08.193Z,17.18
2016-12-24T12:58:19.194Z,17.19
2016-12-24T12:59:30.100Z,17.16
2016-12-24T13:00:40.665Z,17.15
2016-12-24T13:01:51.566Z,17.22
2016-12-24T13:03:02.135Z,17.19
2016-12-24T13:04:12.408Z,17.3
2016-12-24T13:05:23.310Z,17.3
2016-12-24T13:06:34.227Z,17.26
2016-12-24T13:07:44.792Z,17.26
2016-12-24T13:08:55.705Z,17.22
2016-12-24T13:10:06.666Z,17.3
2016-12-24T13:11:17.575Z,17.31
2016-12-24T13:12:28.137Z,17.36
2016-12-24T13:13:39.038Z,17.34
2016-12-24T13:14:49.947Z,17.41
2016-12-24T13:16:00.916Z,17.4
2016-12-24T13:17:11.830Z,17.43
2016-12-24T13:18:22.423Z,17.41
2016-12-24T13:19:33.324Z,17.4
2016-12-24T13:20:44.222Z,17.4
2016-12-24T13:21:55.187Z,17.44
2016-12-24T13:23:06.091Z,17.44
2016-12-24T13:24:16.653Z,17.38
2016-12-24T13:25:27.554Z,17.43
2016-12-24T13:26:38.468Z,17.52
2016-12-24T13:27:49.081Z,17.52
2016-12-24T13:28:59.650Z,17.51
2016-12-24T13:30:10.583Z,17.56
2016-12-24T13:31:21.493Z,17.51
2016-12-24T13:32:32.394Z,17.54
2016-12-24T13:33:43.351Z,17.55
2016-12-24T13:34:53.920Z,17.58
2016-12-24T13:36:04.833Z,17.56
2016-12-24T13:37:15.743Z,17.58
2016-12-24T13:38:26.300Z,17.56
2016-12-24T13:39:37.253Z,17.59
2016-12-24T13:40:48.159Z,17.55
2016-12-24T13:41:58.724Z,17.64
2016-12-24T13:43:09.637Z,17.64
2016-12-24T13:44:20.547Z,17.59
2016-12-24T13:45:31.220Z,17.58
2016-12-24T13:46:42.128Z,17.7
2016-12-24T13:47:53.046Z,17.68
2016-12-24T13:49:03.615Z,17.56
2016-12-24T13:50:14.532Z,17.55
2016-12-24T13:51:25.142Z,17.62
2016-12-24T13:52:36.062Z,17.74
2016-12-24T13:53:46.964Z,17.7
2016-12-24T13:54:57.873Z,17.54
2016-12-24T13:56:08.779Z,17.66
2016-12-24T13:57:19.743Z,17.59
2016-12-24T13:58:30.309Z,17.62
2016-12-24T13:59:41.226Z,17.56
2016-12-24T14:00:52.163Z,17.72
2016-12-24T14:02:03.072Z,17.7
2016-12-24T14:03:14.026Z,17.66
2016-12-24T14:04:24.952Z,17.77
2016-12-24T14:05:35.864Z,17.71
2016-12-24T14:06:46.773Z,17.7
2016-12-24T14:07:57.687Z,17.59
2016-12-24T14:09:08.440Z,17.59
2016-12-24T14:10:19.347Z,17.62
2016-12-24T14:11:30.286Z,17.58
2016-12-24T14:12:41.220Z,17.56
2016-12-24T14:13:52.121Z,17.59
2016-12-24T14:15:03.079Z,17.77
2016-12-24T14:16:13.991Z,17.63
2016-12-24T14:17:26.296Z,17.64
2016-12-24T14:18:37.202Z,17.62
2016-12-24T14:19:48.107Z,17.68
2016-12-24T14:20:59.428Z,17.7
2016-12-24T14:22:10.710Z,17.72
2016-12-24T14:23:21.619Z,17.72
2016-12-24T14:24:32.988Z,17.7
2016-12-24T14:25:45.237Z,17.66
2016-12-24T14:26:58.316Z,17.79
2016-12-24T14:28:09.871Z,17.72
2016-12-24T14:29:20.801Z,17.75
2016-12-24T14:30:33.474Z,17.68
2016-12-24T14:31:45.099Z,17.68
2016-12-24T14:32:57.448Z,17.7
2016-12-24T14:34:09.642Z,17.71
2016-12-24T14:35:20.127Z,17.7
2016-12-24T14:36:30.912Z,17.71
2016-12-24T14:37:42.129Z,17.78
2016-12-24T14:38:53.567Z,17.77
2016-12-24T14:40:04.092Z,17.81
2016-12-24T14:41:15.201Z,17.78
2016-12-24T14:42:25.694Z,17.84
2016-12-24T14:43:37.660Z,17.82
2016-12-24T14:44:49.248Z,17.9
2016-12-24T14:46:00.610Z,17.84
2016-12-24T14:47:13.171Z,17.87
2016-12-24T14:48:25.328Z,17.84
2016-12-24T14:49:36.862Z,17.84
2016-12-24T14:50:50.799Z,17.74
2016-12-24T14:52:03.244Z,17.93
2016-12-24T14:53:14.961Z,17.86
2016-12-24T14:54:25.498Z,17.99
2016-12-24T14:55:36.688Z,17.99
2016-12-24T14:56:48.981Z,17.79
2016-12-24T14:57:59.722Z,17.93
2016-12-24T14:59:10.619Z,17.96
2016-12-24T15:00:21.588Z,17.86
2016-12-24T15:01:32.887Z,17.89
2016-12-24T15:02:44.651Z,17.95
2016-12-24T15:03:55.924Z,17.99
2016-12-24T15:05:07.025Z,17.89
2016-12-24T15:06:18.391Z,17.92
2016-12-24T15:07:29.151Z,17.96
2016-12-24T15:08:41.177Z,17.95
2016-12-24T15:09:52.930Z,17.89
2016-12-24T15:11:04.535Z,17.95
2016-12-24T15:12:16.156Z,17.95
2016-12-24T15:13:28.374Z,17.87
2016-12-24T15:14:39.195Z,17.96
2016-12-24T15:15:50.384Z,18
2016-12-24T15:17:02.617Z,18.02